Time;durP1;ratioP1;P1;durP2;ratioP2;P2;SDS_P1;SDS_P2;PMS_P1;PMS_P2;Temp;Humidity;BMP_temperature;BMP_pressure;BME280_temperature;BME280_humidity;BME280_pressure;Samples;Min_cycle;Max_cycle;Signal;HPM_P1;HPM_P2
2021/11/06 00:01:26;;;;;;;15.58;8.08;;;;;;;6.30;77.56;101265.66;1371207;95;21495;-88
2021/11/06 00:03:53;;;;;;;13.13;7.67;;;;;;;6.25;77.86;101268.59;1372813;95;21517;-89
2021/11/06 00:06:20;;;;;;;11.33;7.13;;;;;;;6.19;77.92;101258.48;1358269;96;21613;-89
2021/11/06 00:08:47;;;;;;;10.60;7.57;;;;;;;6.14;78.26;101263.19;1351875;97;21468;-87
2021/11/06 00:11:14;;;;;;;14.53;7.47;;;;;;;6.11;78.16;101262.07;1335532;98;21467;-88
2021/11/06 00:13:41;;;;;;;11.30;6.87;;;;;;;6.08;78.11;101266.22;1370020;94;21354;-88
2021/11/06 00:16:09;;;;;;;11.83;7.20;;;;;;;6.03;78.17;101270.44;1357670;96;21400;-87
2021/11/06 00:18:36;;;;;;;14.53;6.57;;;;;;;6.00;78.16;101278.99;1371439;95;21649;-88
2021/11/06 00:21:03;;;;;;;11.57;7.20;;;;;;;5.96;78.16;101293.28;1369331;95;21480;-89
2021/11/06 00:23:30;;;;;;;10.50;6.33;;;;;;;5.87;78.13;101311.27;1368762;92;21421;-88
2021/11/06 00:25:57;;;;;;;9.43;6.43;;;;;;;5.82;78.07;101321.21;1412063;92;22403;-89
2021/11/06 00:28:25;;;;;;;10.10;6.27;;;;;;;5.79;78.16;101329.77;1406750;92;21354;-88
2021/11/06 00:30:52;;;;;;;14.17;7.13;;;;;;;5.75;78.06;101335.65;1412229;92;21361;-89
2021/11/06 00:33:21;;;;;;;12.03;6.30;;;;;;;5.74;78.23;101339.70;1415451;92;21523;-89
2021/11/06 00:35:48;;;;;;;10.47;5.97;;;;;;;5.68;78.62;101340.08;1407103;90;21636;-88
2021/11/06 00:38:15;;;;;;;9.63;5.50;;;;;;;5.62;78.32;101350.48;1412706;92;21570;-88
2021/11/06 00:40:42;;;;;;;11.93;7.07;;;;;;;5.59;78.73;101354.62;1418041;90;21377;-88
2021/11/06 00:43:10;;;;;;;9.43;5.63;;;;;;;5.60;78.65;101355.82;1384845;92;21503;-88
2021/11/06 00:45:37;;;;;;;8.37;5.27;;;;;;;5.60;78.61;101350.56;1416231;90;21325;-87
2021/11/06 00:48:04;;;;;;;10.03;5.87;;;;;;;5.62;78.74;101343.45;1420610;92;21717;-88
2021/11/06 00:50:31;;;;;;;8.17;5.60;;;;;;;5.64;78.50;101339.43;1404712;92;21370;-87
2021/11/06 00:52:59;;;;;;;9.10;5.13;;;;;;;5.65;78.28;101328.81;1402359;92;21436;-87
2021/11/06 00:55:26;;;;;;;9.20;5.93;;;;;;;5.65;77.81;101328.81;1413863;92;21437;-87
2021/11/06 00:57:53;;;;;;;12.67;5.67;;;;;;;5.68;77.51;101327.79;1422556;92;21415;-87
2021/11/06 01:00:22;;;;;;;9.30;4.53;;;;;;;5.68;77.17;101331.73;1409902;92;21362;-90
2021/11/06 01:02:51;;;;;;;9.10;5.20;;;;;;;5.66;76.51;101327.86;1410539;92;21466;-89
2021/11/06 01:05:19;;;;;;;10.27;5.07;;;;;;;5.68;76.32;101325.64;1387774;93;21541;-89
2021/11/06 01:07:46;;;;;;;7.30;5.07;;;;;;;5.69;76.11;101328.16;1410227;92;21443;-89
2021/11/06 01:10:15;;;;;;;7.73;4.83;;;;;;;5.72;76.25;101335.84;1407776;93;22418;-89
2021/11/06 01:12:43;;;;;;;10.67;6.00;;;;;;;5.74;76.34;101337.91;1392174;93;21444;-89
2021/11/06 01:15:12;;;;;;;9.13;4.63;;;;;;;5.77;76.27;101342.98;1417908;92;21465;-89
2021/11/06 01:17:41;;;;;;;9.43;5.47;;;;;;;5.80;75.96;101334.91;1412003;92;21554;-89
2021/11/06 01:20:08;;;;;;;11.00;5.23;;;;;;;5.75;75.09;101336.97;1419373;92;23463;-88
2021/11/06 01:22:36;;;;;;;8.17;5.27;;;;;;;5.75;75.23;101339.59;1418568;92;22226;-88
2021/11/06 01:25:05;;;;;;;9.07;5.13;;;;;;;5.73;75.02;101351.16;1423363;92;22264;-88
2021/11/06 01:27:33;;;;;;;9.03;4.80;;;;;;;5.72;74.86;101347.66;1388245;92;21606;-89
2021/11/06 01:30:00;;;;;;;10.13;5.73;;;;;;;5.71;74.85;101349.92;1395885;91;21664;-89
2021/11/06 01:32:27;;;;;;;8.90;5.53;;;;;;;5.74;75.10;101363.34;1415342;92;22469;-86
2021/11/06 01:34:54;;;;;;;8.00;5.33;;;;;;;5.75;75.22;101367.17;1415961;92;21444;-87
2021/11/06 01:37:21;;;;;;;10.83;5.53;;;;;;;5.76;75.30;101370.67;1414025;92;21422;-87
2021/11/06 01:39:49;;;;;;;12.43;5.07;;;;;;;5.72;75.26;101372.61;1396751;94;21415;-87
2021/11/06 01:42:17;;;;;;;10.37;5.43;;;;;;;5.69;75.33;101379.37;1398910;94;21504;-87
2021/11/06 01:44:44;;;;;;;7.87;5.27;;;;;;;5.63;75.20;101367.92;1395902;94;22471;-88
2021/11/06 01:47:12;;;;;;;8.90;5.97;;;;;;;5.52;75.07;101370.34;1403843;91;22419;-89
2021/11/06 01:49:39;;;;;;;11.40;5.40;;;;;;;5.45;75.39;101376.92;1410248;92;21536;-89
2021/11/06 01:52:07;;;;;;;7.87;4.80;;;;;;;5.40;75.57;101380.64;1398378;92;22471;-89
2021/11/06 01:54:35;;;;;;;10.60;5.80;;;;;;;5.38;75.68;101384.30;1401397;94;21348;-89
2021/11/06 01:57:04;;;;;;;11.93;5.33;;;;;;;5.32;75.89;101391.22;1404132;94;21325;-88
2021/11/06 01:59:31;;;;;;;7.33;4.33;;;;;;;5.29;76.09;101386.99;1378773;92;21377;-85
2021/11/06 02:01:58;;;;;;;6.20;4.57;;;;;;;5.25;76.11;101389.44;1414924;92;21394;-84
2021/11/06 02:04:26;;;;;;;8.87;4.97;;;;;;;5.20;76.15;101388.84;1415474;92;21414;-87
2021/11/06 02:06:53;;;;;;;8.07;5.20;;;;;;;5.12;76.08;101396.31;1417777;92;21443;-87
2021/11/06 02:09:20;;;;;;;8.07;5.30;;;;;;;5.08;76.35;101398.28;1411021;92;22317;-88
2021/11/06 02:11:47;;;;;;;10.50;5.97;;;;;;;5.08;76.66;101401.38;1410489;92;22360;-87
2021/11/06 02:14:15;;;;;;;12.80;5.50;;;;;;;5.01;76.72;101391.71;1416324;92;21391;-87
2021/11/06 02:16:42;;;;;;;8.13;5.10;;;;;;;4.94;76.78;101395.12;1393390;92;21347;-88
2021/11/06 02:19:10;;;;;;;8.70;5.17;;;;;;;4.83;77.04;101401.92;1412605;92;22515;-87
2021/11/06 02:21:37;;;;;;;8.40;5.20;;;;;;;4.83;77.04;101401.92;1398442;94;21570;-88
2021/11/06 02:24:06;;;;;;;9.57;5.20;;;;;;;4.76;77.06;101405.37;1373313;94;22181;-89
2021/11/06 02:26:34;;;;;;;10.10;5.40;;;;;;;4.73;77.45;101402.92;1411681;92;22114;-89
2021/11/06 02:29:03;;;;;;;8.60;4.87;;;;;;;4.68;77.21;101412.81;1393921;91;22159;-90
2021/11/06 02:31:31;;;;;;;8.30;4.70;;;;;;;4.59;77.17;101398.44;1424976;90;21412;-89
2021/11/06 02:33:58;;;;;;;12.67;5.53;;;;;;;4.50;77.87;101414.22;1409009;90;22116;-89
2021/11/06 02:36:26;;;;;;;9.23;4.80;;;;;;;4.50;77.87;101414.22;1409924;92;21459;-89
2021/11/06 02:38:53;;;;;;;8.43;5.43;;;;;;;4.48;77.46;101412.60;1413918;92;22144;-89
2021/11/06 02:41:20;;;;;;;9.27;5.13;;;;;;;4.49;77.61;101422.19;1411964;92;22203;-89
2021/11/06 02:43:48;;;;;;;14.40;5.97;;;;;;;4.52;77.70;101425.94;1407969;92;23067;-87
2021/11/06 02:46:15;;;;;;;10.77;4.77;;;;;;;4.49;77.86;101426.95;1422594;90;23137;-88
2021/11/06 02:48:42;;;;;;;11.80;5.23;;;;;;;4.39;77.99;101428.38;1409664;92;21496;-88
2021/11/06 02:51:09;;;;;;;8.40;6.07;;;;;;;4.32;78.14;101430.95;1402972;92;22071;-88
2021/11/06 02:53:36;;;;;;;6.90;4.57;;;;;;;4.26;77.85;101429.98;1403213;93;22150;-89
2021/11/06 02:56:04;;;;;;;10.20;4.97;;;;;;;4.27;78.37;101430.36;1409934;92;22211;-89
2021/11/06 02:58:32;;;;;;;9.23;4.93;;;;;;;4.27;78.37;101430.36;1421630;92;21398;-88
2021/11/06 03:01:02;;;;;;;12.00;5.93;;;;;;;4.29;78.20;101433.28;1401834;92;22136;-88
2021/11/06 03:03:29;;;;;;;10.00;6.37;;;;;;;4.32;78.41;101437.51;1420798;92;23039;-88
2021/11/06 03:05:56;;;;;;;14.73;7.37;;;;;;;4.36;78.57;101448.67;1419192;92;23149;-87
2021/11/06 03:08:23;;;;;;;9.03;5.40;;;;;;;4.37;78.29;101455.13;1419940;92;23018;-88
2021/11/06 03:10:50;;;;;;;9.47;5.07;;;;;;;4.32;78.27;101460.26;1413892;90;22084;-88
2021/11/06 03:13:17;;;;;;;7.37;4.83;;;;;;;4.24;78.18;101458.03;1416650;92;22218;-88
2021/11/06 03:15:44;;;;;;;7.80;4.70;;;;;;;4.17;78.01;101459.27;1419596;92;22129;-87
2021/11/06 03:18:12;;;;;;;7.17;4.47;;;;;;;4.09;78.07;101465.41;1415583;92;24467;-87
2021/11/06 03:20:39;;;;;;;8.13;5.27;;;;;;;3.99;78.76;101465.02;1416990;92;22459;-89
2021/11/06 03:23:06;;;;;;;12.03;4.73;;;;;;;3.96;78.43;101458.63;1399017;93;22312;-88
2021/11/06 03:25:35;;;;;;;8.33;5.27;;;;;;;3.95;78.74;101465.65;1396183;93;22144;-89
2021/11/06 03:28:02;;;;;;;14.07;4.60;;;;;;;3.92;78.87;101463.19;1390326;94;22173;-89
2021/11/06 03:30:29;;;;;;;10.37;4.27;;;;;;;3.90;78.59;101454.56;1395416;90;22336;-89
2021/11/06 03:32:56;;;;;;;5.30;3.50;;;;;;;3.92;78.52;101475.45;1418642;92;22129;-91
2021/11/06 03:35:24;;;;;;;6.77;4.70;;;;;;;3.90;78.66;101472.89;1419451;92;22083;-89
2021/11/06 03:37:51;;;;;;;9.37;4.83;;;;;;;3.87;78.27;101476.98;1398187;92;22120;-89
2021/11/06 03:40:19;;;;;;;9.97;5.47;;;;;;;3.81;78.15;101477.30;1419752;92;22151;-89
2021/11/06 03:42:47;;;;;;;7.97;4.73;;;;;;;3.78;78.05;101477.45;1418119;92;22115;-89
2021/11/06 03:45:15;;;;;;;7.77;5.33;;;;;;;3.79;78.30;101483.91;1414865;92;22216;-89
2021/11/06 03:47:42;;;;;;;9.20;4.73;;;;;;;3.83;78.47;101488.55;1418268;92;22232;-89
2021/11/06 03:50:11;;;;;;;9.73;5.03;;;;;;;3.74;78.40;101490.30;1416213;92;22114;-89
2021/11/06 03:52:40;;;;;;;9.57;5.37;;;;;;;3.74;78.40;101490.30;1396421;92;22270;-88
2021/11/06 03:55:10;;;;;;;9.90;5.43;;;;;;;3.73;78.26;101500.41;1407507;92;23422;-88
2021/11/06 03:57:38;;;;;;;11.87;6.47;;;;;;;3.63;78.38;101484.33;1395662;92;22026;-90
2021/11/06 04:00:10;;;;;;;11.30;6.70;;;;;;;3.64;78.45;101492.55;1404724;92;22161;-90
2021/11/06 04:02:37;;;;;;;11.87;6.27;;;;;;;3.58;78.76;101493.70;1414846;92;22245;-90
2021/11/06 04:05:05;;;;;;;14.47;7.07;;;;;;;3.58;78.83;101503.33;1413996;92;22255;-90
2021/11/06 04:07:34;;;;;;;13.57;8.40;;;;;;;3.60;78.89;101506.73;1406675;92;22229;-90
2021/11/06 04:10:03;;;;;;;13.57;8.37;;;;;;;3.60;78.89;101506.73;1397383;94;23281;-90
2021/11/06 04:12:30;;;;;;;16.30;7.47;;;;;;;3.68;78.81;101515.49;1393463;94;24261;-91
2021/11/06 04:14:57;;;;;;;12.10;6.87;;;;;;;3.67;79.24;101511.19;1421655;92;21953;-90
2021/11/06 04:17:26;;;;;;;13.00;7.73;;;;;;;3.56;79.81;101509.94;1421855;92;22130;-90
2021/11/06 04:19:53;;;;;;;17.17;10.07;;;;;;;3.49;79.38;101516.88;1405539;92;22139;-90
2021/11/06 04:22:22;;;;;;;21.87;10.83;;;;;;;3.47;79.19;101513.48;1399419;93;22119;-90
2021/11/06 04:24:50;;;;;;;9.23;5.40;;;;;;;3.47;79.28;101518.72;1403747;93;22093;-91
2021/11/06 04:27:17;;;;;;;9.50;6.20;;;;;;;3.43;79.05;101518.03;1392204;94;22439;-90
2021/11/06 04:29:44;;;;;;;12.57;7.13;;;;;;;3.36;79.57;101506.15;1392114;94;22360;-90
2021/11/06 04:32:11;;;;;;;11.30;6.83;;;;;;;3.30;79.30;101495.98;1400213;90;24896;-89
2021/11/06 04:34:38;;;;;;;16.70;7.23;;;;;;;3.30;79.30;101495.98;1399826;92;22136;-90
2021/11/06 04:37:05;;;;;;;12.70;7.27;;;;;;;3.18;79.19;101500.52;1416060;92;21796;-90
2021/11/06 04:39:33;;;;;;;13.90;8.27;;;;;;;3.18;79.19;101500.52;1409241;92;23062;-90
2021/11/06 04:42:00;;;;;;;9.23;6.13;;;;;;;3.15;79.32;101501.04;1413482;92;21936;-89
2021/11/06 04:44:27;;;;;;;12.73;6.53;;;;;;;3.18;79.81;101502.66;1418220;92;22365;-90
2021/11/06 04:46:55;;;;;;;14.17;6.07;;;;;;;3.16;79.73;101511.03;1399311;92;21858;-91
2021/11/06 04:49:22;;;;;;;13.53;7.33;;;;;;;3.16;79.73;101511.03;1418976;92;23222;-89
2021/11/06 04:51:49;;;;;;;11.67;7.03;;;;;;;3.09;79.73;101514.41;1410106;92;21908;-89
2021/11/06 04:54:16;;;;;;;10.07;6.27;;;;;;;3.05;79.67;101500.23;1399716;93;21947;-89
2021/11/06 04:56:43;;;;;;;7.53;4.67;;;;;;;3.05;79.67;101500.23;1395978;93;21934;-88
2021/11/06 04:59:12;;;;;;;8.57;5.37;;;;;;;3.08;79.53;101523.19;1404627;93;23071;-88
2021/11/06 05:01:40;;;;;;;8.70;5.57;;;;;;;3.10;79.50;101516.09;1400971;93;22074;-88
2021/11/06 05:04:07;;;;;;;10.80;5.27;;;;;;;3.10;79.50;101516.09;1397034;90;22121;-89
2021/11/06 05:06:34;;;;;;;10.07;5.43;;;;;;;3.13;79.24;101518.56;1415557;92;21862;-91
2021/11/06 05:09:01;;;;;;;8.77;5.53;;;;;;;3.21;79.94;101531.76;1376922;93;21957;-91
2021/11/06 05:11:28;;;;;;;7.00;4.80;;;;;;;3.21;79.94;101531.76;1400718;93;23021;-91
2021/11/06 05:13:56;;;;;;;11.93;5.90;;;;;;;3.28;79.62;101534.45;1404139;93;21877;-91
2021/11/06 05:16:23;;;;;;;7.60;5.20;;;;;;;3.25;79.22;101529.37;1396458;93;21775;-91
2021/11/06 05:18:50;;;;;;;7.23;5.27;;;;;;;3.25;79.22;101529.37;1409869;92;21946;-91
2021/11/06 05:21:17;;;;;;;7.70;5.43;;;;;;;3.27;79.37;101535.38;1396400;92;22817;-90
2021/11/06 05:23:44;;;;;;;9.10;4.83;;;;;;;3.24;79.57;101539.45;1411825;92;22069;-89
2021/11/06 05:26:11;;;;;;;7.53;4.50;;;;;;;3.24;79.57;101539.45;1402877;92;22301;-89
2021/11/06 05:28:38;;;;;;;8.63;5.43;;;;;;;3.28;79.26;101540.56;1410094;90;23087;-89
2021/11/06 05:31:05;;;;;;;7.20;4.70;;;;;;;3.29;79.23;101555.79;1407721;90;22103;-90
2021/11/06 05:33:32;;;;;;;8.43;4.87;;;;;;;3.29;79.23;101555.79;1354329;95;21952;-88
2021/11/06 05:35:59;;;;;;;8.37;4.73;;;;;;;3.25;79.29;101551.17;1375596;95;21968;-89
2021/11/06 05:38:26;;;;;;;7.47;5.00;;;;;;;3.21;79.43;101551.38;1375109;95;22981;-88
2021/11/06 05:40:53;;;;;;;8.73;5.13;;;;;;;3.22;79.44;101564.37;1380396;94;22053;-89
2021/11/06 05:43:21;;;;;;;11.37;5.80;;;;;;;3.18;79.42;101556.30;1376986;95;21845;-88
2021/11/06 05:45:48;;;;;;;10.10;5.83;;;;;;;3.15;79.18;101563.82;1376919;93;22132;-90
2021/11/06 05:48:15;;;;;;;11.37;5.07;;;;;;;3.15;79.18;101563.82;1378367;95;22864;-90
2021/11/06 05:50:42;;;;;;;7.73;5.47;;;;;;;3.09;79.96;101556.27;1376259;95;22289;-90
2021/11/06 05:53:09;;;;;;;10.07;5.00;;;;;;;3.09;79.49;101558.88;1376880;95;23064;-89
2021/11/06 05:55:37;;;;;;;9.17;5.33;;;;;;;3.09;79.49;101558.88;1380189;94;21926;-90
2021/11/06 05:58:04;;;;;;;9.97;5.13;;;;;;;3.12;79.19;101553.97;1375731;95;21890;-90
2021/11/06 06:00:31;;;;;;;11.67;6.20;;;;;;;3.12;79.19;101553.97;1380794;95;22118;-90
2021/11/06 06:02:58;;;;;;;10.90;6.00;;;;;;;3.19;79.66;101574.14;1373878;95;22097;-88
2021/11/06 06:05:25;;;;;;;11.73;8.17;;;;;;;3.19;79.66;101574.14;1365910;96;21872;-88
2021/11/06 06:07:54;;;;;;;10.20;7.37;;;;;;;3.26;79.50;101585.44;1392702;93;22921;-90
2021/11/06 06:10:21;;;;;;;15.33;8.03;;;;;;;3.51;79.62;101594.41;1370909;95;22171;-89
2021/11/06 06:12:53;;;;;;;12.10;8.03;;;;;;;3.65;79.48;101600.27;1363443;96;22809;-89
2021/11/06 06:15:21;;;;;;;14.97;7.90;;;;;;;3.65;79.48;101600.27;1346688;96;22178;-90
2021/11/06 06:17:51;;;;;;;16.33;9.03;;;;;;;3.79;79.11;101609.61;1361129;96;22359;-89
2021/11/06 06:20:19;;;;;;;12.83;7.53;;;;;;;3.79;79.11;101609.61;1362000;96;23104;-88
2021/11/06 06:22:47;;;;;;;12.33;7.27;;;;;;;3.86;78.82;101610.17;1362362;96;22046;-88
2021/11/06 06:25:15;;;;;;;14.97;7.03;;;;;;;3.95;79.00;101602.33;1360051;96;22313;-89
2021/11/06 06:27:43;;;;;;;8.50;6.37;;;;;;;4.02;78.47;101602.39;1361500;95;22344;-89
2021/11/06 06:30:14;;;;;;;15.90;6.47;;;;;;;4.13;78.45;101607.94;1370657;95;23063;-88
2021/11/06 06:32:42;;;;;;;14.60;8.23;;;;;;;4.20;77.69;101616.33;1415848;92;23791;-88
2021/11/06 06:35:13;;;;;;;9.90;6.60;;;;;;;4.28;77.79;101622.03;1418421;90;22188;-88
2021/11/06 06:37:41;;;;;;;11.80;7.20;;;;;;;4.34;77.42;101619.10;1409611;90;23370;-90
2021/11/06 06:40:11;;;;;;;15.17;7.67;;;;;;;4.38;77.18;101615.41;1410086;90;23227;-89
2021/11/06 06:42:39;;;;;;;24.37;7.10;;;;;;;4.45;76.94;101625.11;1414751;90;22119;-90
2021/11/06 06:45:07;;;;;;;16.53;6.37;;;;;;;4.55;76.98;101628.12;1413996;92;21347;-89
2021/11/06 06:47:34;;;;;;;22.07;6.40;;;;;;;4.81;76.23;101639.87;1416301;92;22366;-90
2021/11/06 06:50:04;;;;;;;11.47;5.43;;;;;;;4.81;76.23;101639.87;1427413;92;21465;-90
2021/11/06 06:52:33;;;;;;;9.17;5.30;;;;;;;4.91;75.88;101643.22;1408049;93;21340;-89
2021/11/06 06:55:02;;;;;;;11.40;5.57;;;;;;;4.97;75.61;101636.33;1408478;93;21398;-89
2021/11/06 06:57:29;;;;;;;9.97;4.87;;;;;;;5.05;75.26;101637.71;1404850;93;22427;-89
2021/11/06 06:59:56;;;;;;;8.83;5.23;;;;;;;5.12;75.50;101643.00;1403767;93;21495;-88
2021/11/06 07:02:23;;;;;;;9.90;5.17;;;;;;;5.22;75.69;101644.20;1405502;92;21413;-88
2021/11/06 07:04:50;;;;;;;9.17;5.20;;;;;;;5.36;75.56;101653.48;1426106;92;21377;-89
2021/11/06 07:07:18;;;;;;;13.37;5.83;;;;;;;5.53;75.63;101660.91;1425210;90;21362;-89
2021/11/06 07:09:45;;;;;;;9.10;5.13;;;;;;;5.65;74.72;101660.23;1408208;92;21376;-89
2021/11/06 07:12:12;;;;;;;11.53;5.93;;;;;;;5.80;74.86;101666.39;1401887;93;21420;-88
2021/11/06 07:14:39;;;;;;;10.03;5.00;;;;;;;5.93;74.74;101673.09;1424048;92;21428;-89
2021/11/06 07:17:06;;;;;;;9.33;5.47;;;;;;;6.13;74.21;101674.19;1429809;92;21399;-91
2021/11/06 07:19:34;;;;;;;7.87;4.77;;;;;;;6.25;73.07;101669.52;1430448;92;21373;-89
2021/11/06 07:22:05;;;;;;;9.57;5.23;;;;;;;6.38;71.80;101670.11;1425892;90;21399;-89
2021/11/06 07:24:36;;;;;;;8.50;5.07;;;;;;;6.58;73.31;101671.09;1417140;92;21524;-92
2021/11/06 07:27:05;;;;;;;11.28;5.92;;;;;;;6.69;71.07;101669.98;1415147;90;21436;-90
2021/11/06 07:29:36;;;;;;;11.53;5.77;;;;;;;6.81;71.26;101663.60;1412330;92;21709;-88
2021/11/06 07:32:04;;;;;;;11.50;5.80;;;;;;;6.97;71.25;101663.05;1379627;94;21488;-88
2021/11/06 07:34:31;;;;;;;13.23;6.30;;;;;;;7.03;70.84;101654.78;1396760;94;21452;-88
2021/11/06 07:36:59;;;;;;;10.03;5.60;;;;;;;7.13;71.06;101661.14;1396036;94;21467;-88
2021/11/06 07:39:26;;;;;;;7.53;4.90;;;;;;;7.23;70.93;101657.02;1408068;93;21421;-86
2021/11/06 07:41:54;;;;;;;8.20;4.87;;;;;;;7.35;69.18;101662.45;1395123;94;22280;-87
2021/11/06 07:44:21;;;;;;;10.23;4.97;;;;;;;7.44;69.69;101666.66;1394708;93;22390;-87
2021/11/06 07:46:48;;;;;;;8.27;4.50;;;;;;;7.51;68.69;101667.14;1391021;93;22383;-87
2021/11/06 07:49:17;;;;;;;7.67;4.70;;;;;;;7.60;68.24;101659.95;1395978;93;22234;-88
2021/11/06 07:51:44;;;;;;;8.00;5.67;;;;;;;7.67;67.27;101662.55;1405253;93;21361;-88
2021/11/06 07:54:12;;;;;;;8.57;6.13;;;;;;;7.81;68.59;101667.42;1403102;92;21375;-87
2021/11/06 07:56:41;;;;;;;9.10;4.93;;;;;;;7.99;67.84;101668.84;1405488;91;21354;-89
2021/11/06 07:59:08;;;;;;;10.07;5.40;;;;;;;8.09;67.72;101673.91;1408010;92;21398;-87
2021/11/06 08:01:35;;;;;;;8.47;5.00;;;;;;;8.27;68.04;101664.39;1409646;93;21339;-89
2021/11/06 08:04:03;;;;;;;15.50;5.97;;;;;;;8.44;65.68;101662.82;1410846;91;21339;-88
2021/11/06 08:06:31;;;;;;;8.03;4.57;;;;;;;8.55;65.30;101669.53;1412890;91;21390;-88
2021/11/06 08:08:58;;;;;;;8.20;4.57;;;;;;;8.72;66.24;101680.75;1410086;93;21339;-88
2021/11/06 08:11:26;;;;;;;7.53;3.67;;;;;;;8.80;65.63;101672.67;1412516;92;21405;-87
2021/11/06 08:13:53;;;;;;;6.67;4.50;;;;;;;8.98;64.01;101671.86;1409670;92;22863;-86
2021/11/06 08:16:20;;;;;;;6.17;3.40;;;;;;;9.15;65.72;101678.61;1409894;91;22367;-88
2021/11/06 08:18:50;;;;;;;5.67;3.70;;;;;;;9.24;62.94;101671.84;1385504;93;21378;-87
2021/11/06 08:21:19;;;;;;;4.83;3.43;;;;;;;9.34;63.91;101682.59;1409784;93;21479;-86
2021/11/06 08:23:46;;;;;;;8.90;4.20;;;;;;;9.55;65.08;101682.84;1399916;92;21494;-81
2021/11/06 08:26:13;;;;;;;6.20;3.07;;;;;;;9.79;65.22;101680.23;1400678;91;21480;-83
2021/11/06 08:28:40;;;;;;;5.23;3.60;;;;;;;9.95;62.84;101683.42;1413723;93;22251;-82
2021/11/06 08:31:07;;;;;;;4.33;3.00;;;;;;;10.06;60.70;101680.00;1409411;91;22271;-82
2021/11/06 08:33:34;;;;;;;5.13;3.53;;;;;;;10.19;61.85;101679.47;1410018;91;22500;-82
2021/11/06 08:36:36;;;;;;;4.10;2.47;;;;;;;10.34;61.05;101685.44;1410847;92;21421;-82
2021/11/06 08:39:06;;;;;;;5.93;3.10;;;;;;;10.50;61.25;101678.48;1390539;93;21465;-82
2021/11/06 08:41:33;;;;;;;7.37;3.30;;;;;;;10.62;58.38;101678.90;1416647;92;22314;-87
2021/11/06 08:44:01;;;;;;;5.17;3.03;;;;;;;10.73;58.36;101678.05;1415347;91;21421;-87
2021/11/06 08:46:30;;;;;;;3.80;2.93;;;;;;;10.78;57.52;101679.88;1404836;92;22003;-91
2021/11/06 08:48:57;;;;;;;5.20;2.90;;;;;;;10.84;58.92;101676.26;1413399;91;21458;-88
2021/11/06 08:51:24;;;;;;;12.93;3.83;;;;;;;11.06;58.69;101671.95;1414154;91;22307;-88
2021/11/06 08:53:51;;;;;;;4.07;2.83;;;;;;;11.12;57.48;101668.81;1408395;93;21361;-88
2021/11/06 08:56:18;;;;;;;6.63;3.17;;;;;;;11.32;58.10;101676.52;1413137;91;21366;-87
2021/11/06 08:58:46;;;;;;;4.40;2.57;;;;;;;11.47;56.81;101689.03;1410267;91;21487;-88
2021/11/06 09:01:13;;;;;;;4.87;2.10;;;;;;;11.35;53.58;101692.66;1413907;93;22968;-88
2021/11/06 09:03:41;;;;;;;5.87;2.87;;;;;;;11.46;56.58;101700.61;1404342;91;22419;-87
2021/11/06 09:06:08;;;;;;;4.13;3.30;;;;;;;11.65;55.96;101702.16;1411163;92;21339;-88
2021/11/06 09:08:42;;;;;;;5.03;2.73;;;;;;;11.86;52.87;101694.78;1389367;93;21354;-87
2021/11/06 09:11:10;;;;;;;3.50;2.57;;;;;;;12.62;51.73;101693.69;1397993;93;21553;-86
2021/11/06 09:13:40;;;;;;;7.58;3.20;;;;;;;13.38;50.61;101690.75;1408239;92;21539;-87
2021/11/06 09:16:10;;;;;;;4.87;3.37;;;;;;;14.56;51.54;101693.40;1401599;92;21642;-87
2021/11/06 09:18:39;;;;;;;4.45;2.92;;;;;;;15.49;47.93;101713.00;1408100;91;21509;-87
2021/11/06 09:21:11;;;;;;;5.53;4.27;;;;;;;16.07;48.18;101709.14;1407964;91;21413;-86
2021/11/06 09:23:39;;;;;;;3.37;2.60;;;;;;;16.49;41.47;101715.70;1412502;93;21480;-87
2021/11/06 09:26:08;;;;;;;3.67;2.35;;;;;;;16.60;41.36;101710.08;1383483;93;21512;-87
2021/11/06 09:28:42;;;;;;;2.25;2.02;;;;;;;17.31;42.19;101711.20;1399090;93;21516;-86
2021/11/06 09:31:12;;;;;;;1.80;1.45;;;;;;;17.02;40.72;101709.39;1413436;91;22228;-86
2021/11/06 09:33:42;;;;;;;2.50;1.80;;;;;;;16.90;39.97;101710.16;1407807;91;21458;-87
2021/11/06 09:36:11;;;;;;;2.02;1.37;;;;;;;17.01;37.57;101712.56;1399884;92;21354;-87
2021/11/06 09:38:38;;;;;;;2.92;1.30;;;;;;;17.23;41.40;101714.34;1416061;92;21383;-86
2021/11/06 09:41:08;;;;;;;3.08;1.70;;;;;;;17.76;38.40;101712.70;1413773;92;21280;-83
2021/11/06 09:43:39;;;;;;;6.37;1.97;;;;;;;17.69;36.86;101710.83;1418372;92;21428;-83
2021/11/06 09:46:09;;;;;;;4.20;1.80;;;;;;;18.20;40.70;101723.69;1416480;92;21464;-82
2021/11/06 09:48:40;;;;;;;1.72;1.12;;;;;;;18.29;38.14;101710.63;1399291;92;21508;-82
2021/11/06 09:51:07;;;;;;;5.92;1.30;;;;;;;18.40;38.17;101710.30;1408988;92;21472;-82
2021/11/06 09:53:40;;;;;;;3.90;1.35;;;;;;;18.68;38.26;101707.27;1413666;92;21331;-82
2021/11/06 09:56:12;;;;;;;1.65;1.30;;;;;;;18.73;36.07;101704.92;1413470;92;21526;-82
2021/11/06 09:58:41;;;;;;;2.47;1.47;;;;;;;18.98;36.07;101704.89;1407447;92;22307;-82
2021/11/06 10:01:10;;;;;;;2.37;1.52;;;;;;;18.88;34.96;101705.92;1410290;92;22756;-82
2021/11/06 10:03:38;;;;;;;1.40;1.10;;;;;;;18.88;35.74;101707.77;1413257;92;23214;-82
2021/11/06 10:06:08;;;;;;;4.25;1.30;;;;;;;18.59;37.18;101705.11;1419286;92;22351;-82
2021/11/06 10:08:39;;;;;;;3.08;1.47;;;;;;;18.31;35.29;101703.27;1407436;92;21413;-83
2021/11/06 10:11:11;;;;;;;2.05;1.15;;;;;;;18.48;37.64;101699.58;1409340;92;21501;-82
2021/11/06 10:14:01;;;;;;;2.20;0.90;;;;;;;18.51;35.21;101701.09;1408089;92;21287;-82
2021/11/06 10:16:56;;;;;;;2.17;1.07;;;;;;;18.55;34.78;101686.83;1413216;92;22322;-83
2021/11/06 10:19:34;;;;;;;3.15;1.55;;;;;;;18.54;36.93;101687.34;1402568;92;21627;-82
2021/11/06 10:22:20;;;;;;;3.70;1.50;;;;;;;18.31;35.37;101683.17;1418506;92;21502;-82
2021/11/06 10:24:57;;;;;;;1.52;1.22;;;;;;;18.42;36.49;101678.81;1408588;92;21363;-82
2021/11/06 10:27:30;;;;;;;6.85;1.37;;;;;;;17.81;36.04;101678.79;1406402;92;22589;-82
2021/11/06 10:30:13;;;;;;;2.65;1.10;;;;;;;17.49;37.30;101679.02;1399677;92;21418;-83
2021/11/06 10:32:45;;;;;;;5.37;1.92;;;;;;;16.46;36.15;101686.11;1414088;92;21406;-83
2021/11/06 10:35:19;;;;;;;3.70;2.10;;;;;;;16.60;37.86;101685.55;1397965;91;21333;-83
2021/11/06 10:37:48;;;;;;;5.05;2.52;;;;;;;16.15;37.70;101688.36;1387026;92;21348;-83
2021/11/06 10:40:20;;;;;;;10.45;5.75;;;;;;;16.30;39.54;101693.98;1377177;94;21430;-83
2021/11/06 10:42:53;;;;;;;5.70;1.60;;;;;;;16.30;38.63;101696.66;1378093;92;21554;-83
2021/11/06 10:45:25;;;;;;;3.30;2.75;;;;;;;16.56;38.19;101698.03;1381301;92;21614;-83
2021/11/06 10:48:06;;;;;;;5.20;2.98;;;;;;;16.66;39.28;101690.27;1380149;94;21408;-83
2021/11/06 10:51:05;;;;;;;3.05;2.20;;;;;;;17.01;39.55;101686.33;1390663;94;21438;-83
2021/11/06 10:53:53;;;;;;;1.67;1.57;;;;;;;17.13;37.67;101689.05;1386582;94;22546;-83
2021/11/06 10:56:41;;;;;;;1.75;1.30;;;;;;;17.13;37.67;101689.05;1393285;94;23298;-83
2021/11/06 10:59:17;;;;;;;1.67;1.20;;;;;;;17.29;35.60;101686.94;1385738;93;21600;-83
2021/11/06 11:01:53;;;;;;;1.85;1.10;;;;;;;17.53;38.62;101676.34;1443381;94;21246;-83
2021/11/06 11:04:18;;;;;;;4.92;1.30;;;;;;;17.36;33.81;101680.79;1383853;93;21533;-83
2021/11/06 11:06:53;;;;;;;3.17;1.00;;;;;;;17.26;37.01;101682.77;1373138;93;21423;-83
2021/11/06 11:09:25;;;;;;;2.22;1.27;;;;;;;17.09;34.90;101674.31;1386804;94;23164;-83
2021/11/06 11:11:57;;;;;;;1.30;1.00;;;;;;;17.44;37.82;101675.15;1374349;94;22436;-83
2021/11/06 11:14:28;;;;;;;2.35;1.50;;;;;;;17.13;34.38;101668.49;1441543;96;22595;-83
2021/11/06 11:17:02;;;;;;;3.80;0.95;;;;;;;16.81;35.36;101668.33;1299541;96;21401;-83
2021/11/06 11:19:40;;;;;;;1.50;1.10;;;;;;;16.54;36.71;101670.11;1441479;96;21326;-83
2021/11/06 11:22:25;;;;;;;0.85;0.70;;;;;;;17.05;37.75;101668.45;1404506;96;21357;-83
2021/11/06 11:24:54;;;;;;;1.82;1.15;;;;;;;16.77;35.48;101658.94;1377180;93;21496;-83
2021/11/06 11:27:23;;;;;;;2.22;1.35;;;;;;;16.90;37.39;101656.69;1366303;94;21541;-84
2021/11/06 11:29:51;;;;;;;5.72;1.07;;;;;;;16.78;35.32;101653.95;1377341;94;21674;-83
2021/11/06 11:32:18;;;;;;;2.33;1.27;;;;;;;17.29;37.24;101650.34;1369740;95;21600;-81
2021/11/06 11:34:48;;;;;;;3.08;2.58;;;;;;;17.41;37.82;101645.53;1369186;95;21511;-81
2021/11/06 11:37:16;;;;;;;2.83;1.17;;;;;;;17.98;36.13;101637.63;1406975;93;21383;-81